Time;durP1;ratioP1;P1;durP2;ratioP2;P2;SDS_P1;SDS_P2;PMS_P1;PMS_P2;Temp;Humidity;BMP_temperature;BMP_pressure;BME280_temperature;BME280_humidity;BME280_pressure;Samples;Min_cycle;Max_cycle;Signal;HPM_P1;HPM_P2
2021/12/15 00:01:03;;;;;;;424.08;217.93;;;;;;;1.58;78.06;98170.19;1703764;84;25667;-80
2021/12/15 00:03:30;;;;;;;399.65;205.18;;;;;;;1.60;78.12;98169.57;1717972;83;28364;-80
2021/12/15 00:05:58;;;;;;;409.73;204.23;;;;;;;1.63;78.19;98166.64;1703476;84;25878;-80
2021/12/15 00:08:25;;;;;;;378.30;197.93;;;;;;;1.64;78.11;98164.34;1717922;83;25218;-80
2021/12/15 00:10:51;;;;;;;383.35;201.90;;;;;;;1.64;78.11;98176.31;1703739;83;25784;-80
2021/12/15 00:13:21;;;;;;;395.60;202.75;;;;;;;1.64;78.10;98173.66;1719073;82;25734;-80
2021/12/15 00:15:49;;;;;;;386.65;210.10;;;;;;;1.65;78.15;98176.67;1696165;83;28218;-80
2021/12/15 00:18:16;;;;;;;414.85;211.87;;;;;;;1.68;78.22;98181.73;1697852;84;25811;-80
2021/12/15 00:20:44;;;;;;;397.50;207.85;;;;;;;1.70;78.18;98182.89;1696287;83;25770;-80
2021/12/15 00:23:11;;;;;;;390.95;205.15;;;;;;;1.69;78.15;98175.91;1697845;84;25715;-80
2021/12/15 00:25:41;;;;;;;376.92;194.40;;;;;;;1.65;78.18;98174.50;1696362;83;25845;-80
2021/12/15 00:28:08;;;;;;;376.52;197.30;;;;;;;1.66;78.23;98172.19;1727184;82;27461;-80
2021/12/15 00:30:35;;;;;;;373.00;192.53;;;;;;;1.67;78.30;98164.56;1727190;81;25856;-80
2021/12/15 00:33:02;;;;;;;373.05;191.22;;;;;;;1.65;78.29;98175.34;1727162;83;25718;-80
2021/12/15 00:35:29;;;;;;;361.12;185.55;;;;;;;1.66;78.34;98185.50;1727218;82;25753;-80
2021/12/15 00:37:56;;;;;;;378.90;191.70;;;;;;;1.67;78.38;98180.05;1727188;83;25730;-80
2021/12/15 00:40:25;;;;;;;383.07;193.95;;;;;;;1.63;78.29;98186.61;1727175;83;27364;-80
2021/12/15 00:42:54;;;;;;;392.32;200.10;;;;;;;1.60;78.34;98184.20;1727135;82;25776;-80
2021/12/15 00:45:21;;;;;;;376.73;199.42;;;;;;;1.58;78.38;98180.84;1727265;82;25241;-80
2021/12/15 00:47:48;;;;;;;376.50;199.17;;;;;;;1.60;78.49;98174.89;1727213;82;25721;-80
2021/12/15 00:50:19;;;;;;;371.00;193.95;;;;;;;1.65;78.53;98188.64;1726848;82;25689;-80
2021/12/15 00:52:47;;;;;;;382.20;203.70;;;;;;;1.66;78.48;98188.16;1727447;83;27443;-80
2021/12/15 00:55:19;;;;;;;387.02;194.37;;;;;;;1.57;78.45;98189.80;1727056;83;26003;-79
2021/12/15 00:57:46;;;;;;;376.13;191.27;;;;;;;1.56;78.74;98196.13;1727291;83;25781;-80
2021/12/15 01:00:18;;;;;;;353.30;181.20;;;;;;;1.56;78.74;98196.13;1726915;82;25757;-80
2021/12/15 01:02:46;;;;;;;352.95;185.78;;;;;;;1.54;78.54;98199.41;1726603;83;25753;-80
2021/12/15 01:05:14;;;;;;;357.30;184.05;;;;;;;1.56;78.63;98204.11;1727133;83;27319;-80
2021/12/15 01:07:41;;;;;;;358.32;185.05;;;;;;;1.56;78.58;98201.45;1727058;83;25761;-80
2021/12/15 01:10:10;;;;;;;347.52;180.57;;;;;;;1.57;78.64;98201.77;1727143;81;26413;-79
2021/12/15 01:14:32;;;;;;;344.50;180.97;;;;;;;1.60;78.72;98208.16;1727182;82;25761;-80
2021/12/15 01:20:59;;;;;;;351.27;174.50;;;;;;;1.64;78.59;98210.91;1726865;83;25832;-80
2021/12/15 01:23:28;;;;;;;338.18;168.05;;;;;;;1.63;78.59;98209.23;1727228;83;25832;-80
2021/12/15 01:26:09;;;;;;;352.87;174.12;;;;;;;1.60;78.61;98211.31;1727117;82;25778;-80
2021/12/15 01:28:36;;;;;;;327.52;166.15;;;;;;;1.58;78.62;98208.78;1727174;83;25760;-80
2021/12/15 01:31:06;;;;;;;347.95;175.15;;;;;;;1.59;78.77;98209.13;1726742;82;28340;-80
2021/12/15 01:33:35;;;;;;;340.65;169.15;;;;;;;1.60;78.77;98214.81;1726991;83;25729;-80
2021/12/15 01:36:06;;;;;;;345.23;174.38;;;;;;;1.57;78.72;98208.42;1727112;82;25710;-80
2021/12/15 01:38:36;;;;;;;345.55;179.57;;;;;;;1.57;78.76;98205.77;1727160;83;25848;-79
2021/12/15 01:41:05;;;;;;;340.07;174.82;;;;;;;1.59;78.80;98206.96;1727141;83;25737;-80
2021/12/15 01:43:51;;;;;;;320.20;170.28;;;;;;;1.63;78.83;98195.92;1727071;83;28197;-79
2021/12/15 01:49:01;;;;;;;343.82;177.45;;;;;;;1.59;78.77;98187.84;1726885;83;25793;-80
2021/12/15 01:51:28;;;;;;;339.05;173.35;;;;;;;1.61;78.86;98197.88;1726987;83;25897;-80
2021/12/15 01:53:55;;;;;;;348.40;179.27;;;;;;;1.66;78.92;98198.31;1727117;83;25328;-80
2021/12/15 01:56:23;;;;;;;339.88;177.72;;;;;;;1.63;78.83;98207.89;1727021;83;27398;-80
2021/12/15 01:58:50;;;;;;;356.32;179.50;;;;;;;1.62;78.86;98200.89;1727032;83;25848;-80
2021/12/15 02:01:17;;;;;;;344.00;174.75;;;;;;;1.62;78.87;98199.55;1727168;81;26258;-80
2021/12/15 02:03:43;;;;;;;347.88;177.35;;;;;;;1.59;78.90;98194.98;1727122;83;25744;-80
2021/12/15 02:06:11;;;;;;;344.65;172.47;;;;;;;1.58;78.87;98194.14;1727146;83;25837;-80
2021/12/15 02:08:39;;;;;;;349.48;177.65;;;;;;;1.59;78.89;98184.34;1727148;83;28013;-80
2021/12/15 02:11:08;;;;;;;340.95;181.63;;;;;;;1.59;78.92;98179.02;1726962;83;25662;-80
2021/12/15 02:13:36;;;;;;;340.15;176.35;;;;;;;1.59;78.99;98182.52;1727168;83;25280;-80
2021/12/15 02:16:06;;;;;;;350.68;181.32;;;;;;;1.62;79.05;98183.59;1732364;82;26442;-80
2021/12/15 02:18:37;;;;;;;347.55;177.55;;;;;;;1.61;78.97;98188.55;1732920;82;25765;-79
2021/12/15 02:21:17;;;;;;;347.45;179.03;;;;;;;1.59;79.03;98185.67;1732923;82;27420;-80
2021/12/15 02:23:51;;;;;;;325.70;171.18;;;;;;;1.63;79.04;98184.43;1732715;82;25729;-79
2021/12/15 02:26:24;;;;;;;343.55;175.85;;;;;;;1.64;79.00;98185.63;1732771;82;25750;-80
2021/12/15 02:28:55;;;;;;;333.57;168.70;;;;;;;1.63;79.02;98187.09;1732667;82;25755;-79
2021/12/15 02:34:33;;;;;;;339.63;169.00;;;;;;;1.64;79.18;98182.97;1732961;82;28125;-80
2021/12/15 02:37:18;;;;;;;314.88;163.20;;;;;;;1.63;79.17;98182.61;1730661;82;25706;-79
2021/12/15 02:39:59;;;;;;;313.95;155.30;;;;;;;1.62;79.19;98182.25;1732694;82;25852;-79
2021/12/15 02:42:37;;;;;;;302.62;151.47;;;;;;;1.64;79.25;98191.44;1732892;82;26419;-80
2021/12/15 02:45:08;;;;;;;291.98;146.22;;;;;;;1.65;79.33;98197.96;1732866;82;25765;-80
2021/12/15 02:47:35;;;;;;;232.87;115.57;;;;;;;1.66;79.21;98202.31;1733078;82;27112;-80
2021/12/15 02:50:07;;;;;;;308.07;149.97;;;;;;;1.63;79.17;98209.72;1732755;82;25780;-79
2021/12/15 02:52:36;;;;;;;293.82;147.10;;;;;;;1.60;79.19;98207.31;1732931;82;25717;-79
2021/12/15 02:55:05;;;;;;;281.65;141.10;;;;;;;1.60;79.24;98202.84;1732778;82;25835;-80
2021/12/15 02:57:33;;;;;;;279.35;140.50;;;;;;;1.62;79.25;98206.20;1732813;81;25785;-79
2021/12/15 03:00:15;;;;;;;277.15;142.37;;;;;;;1.63;79.31;98205.23;1732848;82;27355;-80
2021/12/15 03:05:37;;;;;;;266.23;132.45;;;;;;;1.73;79.33;98199.44;1674953;83;25748;-80
2021/12/15 03:07:46;;;;;;;284.95;144.40;;;;;;;1.74;79.28;98205.12;1649277;85;25754;-80
2021/12/15 03:15:42;;;;;;;293.35;147.13;;;;;;;1.70;79.30;98214.34;1677330;84;25666;-79
2021/12/15 03:18:17;;;;;;;285.70;146.20;;;;;;;1.69;79.27;98225.97;1661954;84;25773;-80
2021/12/15 03:20:58;;;;;;;288.07;148.20;;;;;;;1.65;79.27;98226.39;1678886;84;25849;-81
2021/12/15 03:23:40;;;;;;;299.85;145.82;;;;;;;1.65;79.33;98224.58;1662080;84;25855;-80
2021/12/15 03:26:06;;;;;;;281.27;146.68;;;;;;;1.65;79.37;98224.58;1679471;83;27604;-80
2021/12/15 03:39:26;;;;;;;282.45;147.17;;;;;;;1.66;79.39;98233.41;1662207;84;27833;-80
2021/12/15 03:42:04;;;;;;;277.45;143.13;;;;;;;1.64;79.36;98228.21;1694311;82;25771;-80
2021/12/15 03:44:33;;;;;;;277.27;141.05;;;;;;;1.66;79.46;98228.92;1737330;82;25812;-80
2021/12/15 03:47:03;;;;;;;284.23;143.32;;;;;;;1.69;79.42;98237.94;1737701;82;25771;-80
2021/12/15 03:49:30;;;;;;;285.68;145.00;;;;;;;1.68;79.42;98240.77;1737729;82;26408;-80
2021/12/15 03:51:57;;;;;;;276.27;142.25;;;;;;;1.68;79.40;98236.29;1737686;82;28414;-80
2021/12/15 03:54:23;;;;;;;271.27;140.05;;;;;;;1.65;79.41;98237.88;1737606;82;26372;-80
2021/12/15 03:56:50;;;;;;;277.38;139.82;;;;;;;1.66;79.42;98238.23;1737354;82;25631;-80
2021/12/15 03:59:19;;;;;;;278.02;139.28;;;;;;;1.66;79.48;98242.23;1708208;83;25745;-80
2021/12/15 04:01:46;;;;;;;270.48;140.07;;;;;;;1.67;79.49;98242.59;1708205;83;25792;-80
2021/12/15 04:04:12;;;;;;;273.60;140.73;;;;;;;1.67;79.52;98245.25;1708172;83;28444;-80
2021/12/15 04:06:41;;;;;;;275.40;140.82;;;;;;;1.71;79.57;98249.79;1708026;83;25796;-80
2021/12/15 04:09:12;;;;;;;262.20;136.32;;;;;;;1.71;79.53;98243.13;1708171;83;25726;-80
2021/12/15 04:11:41;;;;;;;277.95;144.75;;;;;;;1.70;79.50;98248.10;1708110;83;26493;-80
2021/12/15 04:14:18;;;;;;;272.17;141.75;;;;;;;1.70;79.56;98256.09;1707918;84;25999;-80
2021/12/15 04:16:45;;;;;;;288.85;142.40;;;;;;;1.69;79.55;98262.42;1708550;82;27530;-80
2021/12/15 04:19:16;;;;;;;280.90;144.97;;;;;;;1.69;79.54;98257.91;1708321;82;25738;-79
2021/12/15 04:21:44;;;;;;;279.98;141.85;;;;;;;1.70;79.54;98261.41;1708241;83;25817;-80
2021/12/15 04:24:14;;;;;;;281.75;145.95;;;;;;;1.71;79.55;98265.27;1708158;83;25833;-80
2021/12/15 04:26:42;;;;;;;274.70;143.30;;;;;;;1.70;79.55;98269.39;1708151;83;25777;-80
2021/12/15 04:29:09;;;;;;;283.87;142.90;;;;;;;1.69;79.53;98270.41;1708117;83;27355;-80
2021/12/15 04:31:39;;;;;;;280.27;142.32;;;;;;;1.69;79.54;98276.53;1708076;83;25795;-80
2021/12/15 04:34:10;;;;;;;271.80;137.18;;;;;;;1.69;79.52;98274.39;1708116;83;26505;-80
2021/12/15 04:36:42;;;;;;;272.95;140.15;;;;;;;1.70;79.54;98282.70;1708136;83;25730;-80
2021/12/15 04:39:13;;;;;;;275.65;139.30;;;;;;;1.71;79.56;98274.59;1708265;82;25893;-80
2021/12/15 04:41:46;;;;;;;277.22;141.22;;;;;;;1.70;79.60;98274.23;1708174;82;27371;-80
2021/12/15 04:44:10;;;;;;;260.23;136.68;;;;;;;1.69;79.62;98279.20;1708805;82;25782;-80
2021/12/15 04:46:45;;;;;;;277.93;138.62;;;;;;;1.70;79.71;98275.56;1708173;83;26042;-80
2021/12/15 04:49:17;;;;;;;273.35;140.35;;;;;;;1.73;79.67;98275.30;1708232;83;25682;-80
2021/12/15 04:51:43;;;;;;;272.85;139.68;;;;;;;1.74;79.75;98273.00;1708310;83;26306;-80
2021/12/15 04:54:10;;;;;;;271.90;139.65;;;;;;;1.78;79.71;98272.25;1708100;83;27441;-79
2021/12/15 04:56:37;;;;;;;266.25;134.47;;;;;;;1.77;79.62;98279.88;1708013;83;25884;-80
2021/12/15 04:59:04;;;;;;;258.63;131.85;;;;;;;1.76;79.62;98277.70;1708179;83;25396;-80
2021/12/15 05:01:31;;;;;;;259.10;134.32;;;;;;;1.77;79.63;98278.55;1707861;83;25841;-80
2021/12/15 05:03:57;;;;;;;258.75;135.20;;;;;;;1.79;79.65;98282.77;1708164;83;25781;-80
2021/12/15 05:06:24;;;;;;;243.02;130.85;;;;;;;1.84;79.67;98284.16;1708132;83;27616;-80
2021/12/15 05:08:50;;;;;;;253.67;131.03;;;;;;;1.86;79.70;98287.53;1708032;83;25710;-79
2021/12/15 05:11:17;;;;;;;246.70;132.27;;;;;;;1.90;79.70;98295.61;1708139;83;25687;-80
2021/12/15 05:13:44;;;;;;;254.35;132.07;;;;;;;1.93;79.63;98292.69;1708151;83;25725;-80
2021/12/15 05:16:11;;;;;;;242.47;130.35;;;;;;;1.89;79.53;98292.59;1706377;83;25706;-80
2021/12/15 05:18:37;;;;;;;270.30;136.37;;;;;;;1.84;79.50;98294.80;1705099;84;27490;-80
2021/12/15 05:21:07;;;;;;;251.37;134.43;;;;;;;1.80;79.55;98297.77;1705216;84;25921;-80
2021/12/15 05:23:33;;;;;;;252.65;132.93;;;;;;;1.83;79.58;98302.44;1705255;84;25297;-80
2021/12/15 05:26:01;;;;;;;256.50;133.90;;;;;;;1.82;79.58;98306.91;1705375;84;25812;-80
2021/12/15 05:28:28;;;;;;;253.37;132.93;;;;;;;1.81;79.55;98302.08;1705340;84;25786;-79
2021/12/15 05:30:56;;;;;;;266.65;135.93;;;;;;;1.81;79.56;98298.08;1705299;84;27434;-80
2021/12/15 05:33:24;;;;;;;258.87;134.22;;;;;;;1.84;79.59;98290.81;1705203;84;25709;-80
2021/12/15 05:35:53;;;;;;;254.65;130.78;;;;;;;1.84;79.60;98295.65;1705355;84;25831;-79
2021/12/15 05:38:21;;;;;;;254.60;132.45;;;;;;;1.82;79.55;98300.26;1705231;84;26580;-79
2021/12/15 05:40:47;;;;;;;261.62;136.88;;;;;;;1.81;79.52;98305.27;1705322;84;25754;-80
2021/12/15 05:43:14;;;;;;;276.30;140.20;;;;;;;1.81;79.51;98308.73;1705307;84;27447;-79
2021/12/15 05:45:42;;;;;;;266.77;138.40;;;;;;;1.81;79.58;98303.41;1705211;84;25771;-79
2021/12/15 05:48:13;;;;;;;267.07;138.60;;;;;;;1.77;79.58;98303.34;1705376;84;25795;-79
2021/12/15 05:50:41;;;;;;;261.18;137.05;;;;;;;1.76;79.67;98309.64;1705332;84;25688;-80
2021/12/15 05:53:08;;;;;;;269.57;137.88;;;;;;;1.76;79.71;98308.31;1705356;84;25729;-80
2021/12/15 05:55:36;;;;;;;272.93;138.50;;;;;;;1.75;79.71;98318.61;1705247;84;28035;-80
2021/12/15 05:58:04;;;;;;;274.65;141.12;;;;;;;1.75;79.73;98320.42;1705180;84;25722;-80
2021/12/15 06:00:36;;;;;;;278.30;144.62;;;;;;;1.75;79.74;98317.27;1705342;84;25458;-80
2021/12/15 06:03:04;;;;;;;269.80;141.18;;;;;;;1.72;79.74;98315.36;1705314;84;26333;-80
2021/12/15 06:05:32;;;;;;;269.35;142.03;;;;;;;1.72;79.85;98320.68;1705377;84;25722;-80
2021/12/15 06:07:58;;;;;;;283.68;142.98;;;;;;;1.76;79.96;98324.28;1705312;84;27336;-79
2021/12/15 06:10:28;;;;;;;270.80;143.50;;;;;;;1.76;79.90;98322.95;1704989;84;25737;-80
2021/12/15 06:12:56;;;;;;;273.65;137.43;;;;;;;1.75;79.87;98324.41;1705295;84;25787;-80
2021/12/15 06:15:25;;;;;;;270.42;140.32;;;;;;;1.75;79.93;98321.27;1704344;84;26371;-80
2021/12/15 06:18:03;;;;;;;281.95;137.22;;;;;;;1.78;79.98;98322.82;1692418;84;25711;-80
2021/12/15 06:20:30;;;;;;;279.13;141.60;;;;;;;1.81;80.02;98320.72;1692560;84;27488;-80
2021/12/15 06:22:59;;;;;;;263.98;137.20;;;;;;;1.87;80.06;98323.83;1692414;84;25853;-79
2021/12/15 06:25:26;;;;;;;273.62;135.75;;;;;;;1.90;80.02;98328.89;1692621;84;25778;-79
2021/12/15 06:27:52;;;;;;;251.27;131.63;;;;;;;1.91;79.92;98337.23;1692488;84;25830;-80
2021/12/15 06:30:19;;;;;;;250.15;129.72;;;;;;;1.80;79.84;98339.02;1692556;84;25660;-80
2021/12/15 06:32:45;;;;;;;265.75;135.05;;;;;;;1.68;79.85;98343.23;1692495;84;27369;-80
2021/12/15 06:35:12;;;;;;;276.45;137.50;;;;;;;1.63;79.96;98348.95;1692440;84;25692;-80
2021/12/15 06:37:39;;;;;;;271.77;140.32;;;;;;;1.61;80.05;98346.90;1692231;84;25830;-80
2021/12/15 06:40:08;;;;;;;282.85;142.60;;;;;;;1.64;80.13;98349.79;1692439;84;25731;-79
2021/12/15 06:42:38;;;;;;;278.32;142.65;;;;;;;1.63;80.18;98357.42;1692489;84;25677;-79
2021/12/15 06:45:06;;;;;;;283.62;144.95;;;;;;;1.63;80.22;98364.91;1692398;84;28157;-80
2021/12/15 07:00:43;;;;;;;313.65;157.22;;;;;;;1.82;80.44;98374.80;1692183;84;25761;-79
2021/12/15 07:03:10;;;;;;;303.88;159.95;;;;;;;1.86;80.40;98372.73;1691822;84;25298;-80
2021/12/15 07:05:37;;;;;;;305.85;159.43;;;;;;;1.90;80.38;98371.49;1692433;84;26007;-79
2021/12/15 07:08:06;;;;;;;320.30;164.28;;;;;;;1.93;80.35;98368.57;1692553;84;25829;-80
2021/12/15 07:10:37;;;;;;;323.90;161.70;;;;;;;1.95;80.29;98369.25;1692545;84;28261;-80
2021/12/15 07:13:05;;;;;;;316.73;164.15;;;;;;;1.92;80.19;98380.20;1692546;84;25604;-80
2021/12/15 07:15:34;;;;;;;324.50;165.95;;;;;;;1.90;80.18;98376.33;1692449;84;25822;-80
2021/12/15 07:18:04;;;;;;;381.15;192.35;;;;;;;1.92;80.24;98382.38;1692259;84;26539;-80
2021/12/15 07:20:51;;;;;;;389.15;194.95;;;;;;;1.90;80.22;98382.98;1692696;83;25709;-80
2021/12/15 07:23:21;;;;;;;370.80;189.07;;;;;;;1.92;80.27;98384.19;1692611;84;27428;-80
2021/12/15 07:25:51;;;;;;;412.05;205.45;;;;;;;1.94;80.30;98394.19;1692589;84;25687;-80
2021/12/15 07:28:21;;;;;;;389.93;190.55;;;;;;;1.95;80.25;98390.55;1692645;84;25712;-79
2021/12/15 07:30:49;;;;;;;326.58;159.37;;;;;;;1.99;80.30;98392.83;1692434;84;25789;-79
2021/12/15 07:33:15;;;;;;;326.23;159.03;;;;;;;1.99;80.26;98399.48;1692380;84;25725;-79
2021/12/15 07:35:43;;;;;;;315.57;156.82;;;;;;;2.01;80.26;98404.20;1692540;84;27488;-79
2021/12/15 07:38:09;;;;;;;300.35;144.43;;;;;;;2.04;80.34;98387.11;1692490;84;25297;-79
2021/12/15 07:40:37;;;;;;;289.60;142.50;;;;;;;2.07;80.32;98392.99;1692540;84;25762;-79
2021/12/15 07:43:10;;;;;;;275.38;139.95;;;;;;;2.11;80.32;98406.89;1692536;84;25765;-80
2021/12/15 07:45:44;;;;;;;264.75;133.12;;;;;;;2.14;80.33;98403.97;1692601;83;25812;-79
2021/12/15 07:48:15;;;;;;;278.70;136.68;;;;;;;2.18;80.33;98410.70;1692584;84;28337;-79
2021/12/15 07:50:46;;;;;;;270.80;139.30;;;;;;;2.22;80.38;98406.80;1692457;84;25792;-80
2021/12/15 07:53:15;;;;;;;274.12;140.10;;;;;;;2.26;80.39;98410.88;1692560;84;25924;-80
2021/12/15 07:55:41;;;;;;;277.07;139.52;;;;;;;2.30;80.40;98412.28;1692466;84;25787;-79
2021/12/15 07:58:09;;;;;;;313.87;148.28;;;;;;;2.34;80.37;98416.37;1692549;84;25816;-80
2021/12/15 08:00:40;;;;;;;283.82;138.72;;;;;;;2.38;80.39;98417.80;1692491;84;27487;-80
2021/12/15 08:03:07;;;;;;;257.73;129.15;;;;;;;2.45;80.44;98418.92;1692448;84;25847;-80
2021/12/15 08:05:37;;;;;;;247.00;122.98;;;;;;;2.49;80.44;98428.34;1692489;84;25813;-80
2021/12/15 08:08:04;;;;;;;242.60;118.77;;;;;;;2.53;80.43;98429.77;1692610;84;26478;-80
2021/12/15 08:10:31;;;;;;;240.77;116.90;;;;;;;2.53;80.37;98428.44;1692358;84;25694;-80
2021/12/15 08:12:57;;;;;;;235.30;119.33;;;;;;;2.58;80.40;98433.83;1692661;84;28265;-80
2021/12/15 08:15:24;;;;;;;254.15;123.02;;;;;;;2.61;80.41;98437.08;1692538;84;25682;-79
2021/12/15 08:17:52;;;;;;;263.82;126.87;;;;;;;2.65;80.45;98432.33;1702200;84;25790;-80
2021/12/15 08:20:23;;;;;;;250.35;120.67;;;;;;;2.68;80.46;98440.02;1705141;84;26801;-80
2021/12/15 08:22:50;;;;;;;218.27;99.90;;;;;;;2.70;80.45;98433.58;1705356;84;25745;-80
2021/12/15 08:25:19;;;;;;;301.60;126.10;;;;;;;2.74;80.44;98446.16;1705273;84;27497;-80
2021/12/15 08:27:47;;;;;;;252.80;110.92;;;;;;;2.76;80.42;98453.05;1705288;84;25709;-80
2021/12/15 08:30:20;;;;;;;235.85;108.65;;;;;;;2.81;80.40;98452.61;1705316;84;25940;-80
2021/12/15 08:32:51;;;;;;;215.15;108.07;;;;;;;2.84;80.37;98453.69;1705343;84;25781;-80
2021/12/15 08:35:22;;;;;;;217.57;106.45;;;;;;;2.87;80.31;98461.42;1705418;84;25745;-80
2021/12/15 08:37:49;;;;;;;217.97;105.22;;;;;;;2.88;80.29;98460.44;1705330;84;27383;-80
2021/12/15 08:40:18;;;;;;;200.72;95.00;;;;;;;2.89;80.29;98459.46;1705286;84;25725;-80
2021/12/15 08:42:45;;;;;;;209.92;100.20;;;;;;;2.92;80.31;98459.16;1705366;84;25757;-79
2021/12/15 08:45:13;;;;;;;211.35;97.10;;;;;;;2.95;80.32;98457.56;1705439;84;25684;-80
2021/12/15 08:47:40;;;;;;;188.25;93.33;;;;;;;2.98;80.25;98459.96;1705363;84;25774;-80
2021/12/15 08:50:12;;;;;;;173.00;86.45;;;;;;;2.99;80.24;98458.98;1705450;84;27997;-80
2021/12/15 08:52:39;;;;;;;169.55;83.15;;;;;;;3.01;80.31;98451.69;1705363;84;26376;-80
2021/12/15 08:55:07;;;;;;;154.63;78.07;;;;;;;3.08;80.39;98451.96;1705062;84;25789;-80
2021/12/15 08:57:34;;;;;;;145.72;76.40;;;;;;;3.13;80.38;98450.58;1705349;84;26261;-80
2021/12/15 09:00:03;;;;;;;158.97;79.20;;;;;;;3.18;80.44;98449.65;1705394;84;26391;-80
2021/12/15 09:02:30;;;;;;;154.25;76.70;;;;;;;3.23;80.45;98455.42;1705359;84;27451;-80
2021/12/15 09:04:56;;;;;;;165.70;86.45;;;;;;;3.28;80.39;98451.47;1705297;84;25734;-80
2021/12/15 09:07:23;;;;;;;178.18;90.55;;;;;;;3.28;80.24;98456.81;1705335;84;26411;-80
2021/12/15 09:09:50;;;;;;;183.45;92.05;;;;;;;3.32;80.28;98460.89;1705317;84;25835;-80
2021/12/15 09:12:19;;;;;;;184.78;93.20;;;;;;;3.37;80.34;98452.83;1705367;84;25663;-80
2021/12/15 09:14:46;;;;;;;172.05;87.10;;;;;;;3.41;80.27;98452.03;1705415;84;27400;-80
2021/12/15 09:17:13;;;;;;;172.98;88.60;;;;;;;3.47;80.23;98454.16;1705155;84;25816;-80
2021/12/15 09:19:40;;;;;;;162.65;84.97;;;;;;;3.51;80.23;98450.20;1705357;84;25813;-80
2021/12/15 09:22:07;;;;;;;175.18;85.83;;;;;;;3.56;80.24;98447.95;1705255;84;26501;-80
2021/12/15 09:24:33;;;;;;;148.60;79.20;;;;;;;3.64;80.34;98456.09;1705332;84;25709;-80
2021/12/15 09:27:00;;;;;;;148.55;76.80;;;;;;;3.69;80.26;98453.84;1705341;84;27476;-80
2021/12/15 09:29:27;;;;;;;159.03;79.80;;;;;;;3.72;80.20;98450.91;1705315;84;25731;-81
2021/12/15 09:31:54;;;;;;;153.85;78.35;;;;;;;3.78;80.19;98452.98;1705327;84;26313;-80
2021/12/15 09:34:20;;;;;;;141.92;73.17;;;;;;;3.85;80.22;98455.45;1705316;84;26044;-80
2021/12/15 09:36:51;;;;;;;130.05;69.97;;;;;;;3.90;80.20;98449.16;1705311;84;25757;-80
2021/12/15 09:39:21;;;;;;;131.10;66.97;;;;;;;3.94;80.12;98442.55;1705196;84;27562;-80
2021/12/15 09:41:49;;;;;;;121.45;63.45;;;;;;;3.99;80.09;98436.27;1705230;84;26256;-80
2021/12/15 09:44:21;;;;;;;114.40;63.52;;;;;;;4.05;80.03;98432.68;1680630;84;47364;-80
2021/12/15 10:03:18;;;;;;;113.37;60.95;;;;;;;4.59;79.68;98415.83;1705389;84;25702;-80
2021/12/15 10:05:59;;;;;;;116.22;64.00;;;;;;;4.62;79.54;98418.22;1706545;82;28280;-81
2021/12/15 10:19:35;;;;;;;85.35;50.70;;;;;;;4.77;79.31;98422.07;1705186;84;27515;-81
2021/12/15 10:22:37;;;;;;;86.50;49.40;;;;;;;4.84;79.32;98430.33;1705332;84;25774;-80
2021/12/15 10:25:01;;;;;;;84.25;47.10;;;;;;;4.89;79.23;98422.70;1706644;82;26140;-81
2021/12/15 10:27:39;;;;;;;81.65;48.48;;;;;;;4.94;79.17;98415.92;1705309;84;25875;-81
2021/12/15 10:30:26;;;;;;;84.30;50.60;;;;;;;4.99;79.10;98422.98;1702649;84;25832;-80
2021/12/15 10:33:04;;;;;;;81.85;46.48;;;;;;;5.06;79.07;98419.22;1705517;84;27394;-80
2021/12/15 10:35:38;;;;;;;81.47;47.03;;;;;;;5.12;78.89;98413.73;1705492;84;25777;-81
2021/12/15 10:38:42;;;;;;;79.30;48.55;;;;;;;5.24;79.01;98414.69;1705480;84;25848;-81
2021/12/15 10:41:28;;;;;;;78.30;45.60;;;;;;;5.39;78.98;98418.52;1704431;82;25852;-81
2021/12/15 10:44:00;;;;;;;79.30;46.53;;;;;;;5.53;78.75;98418.97;1705309;84;25746;-81
2021/12/15 10:46:35;;;;;;;80.25;45.03;;;;;;;5.57;78.45;98418.48;1705485;84;27501;-81
2021/12/15 10:49:07;;;;;;;75.00;43.87;;;;;;;5.58;78.28;98416.15;1705202;84;25845;-81
2021/12/15 10:51:47;;;;;;;;;;;;;;;5.53;78.13;98413.61;1736975;82;25700;-80
2021/12/15 10:54:27;;;;;;;72.12;41.02;;;;;;;5.54;78.15;98411.28;1734546;82;25907;-81
2021/12/15 10:57:03;;;;;;;72.53;40.75;;;;;;;5.46;78.05;98406.67;1730207;82;25805;-81
2021/12/15 10:59:35;;;;;;;65.55;39.10;;;;;;;5.46;78.14;98405.34;1734800;82;27372;-81
2021/12/15 11:02:10;;;;;;;70.70;41.37;;;;;;;5.48;78.12;98409.20;1734990;82;25753;-80
2021/12/15 11:04:45;;;;;;;77.15;44.10;;;;;;;5.48;78.17;98402.52;1734735;82;25307;-81
2021/12/15 11:07:41;;;;;;;69.87;42.33;;;;;;;5.49;78.00;98401.52;1734875;82;26225;-81
2021/12/15 11:10:26;;;;;;;74.47;45.00;;;;;;;5.46;77.92;98393.78;1734554;82;25751;-80
2021/12/15 11:13:10;;;;;;;78.90;45.17;;;;;;;5.47;77.99;98387.44;1734774;82;27442;-81
2021/12/15 11:15:45;;;;;;;88.80;49.10;;;;;;;5.56;78.02;98385.16;1734709;82;25259;-80
2021/12/15 11:18:20;;;;;;;90.45;52.70;;;;;;;5.59;77.95;98384.85;1728352;82;25853;-80
2021/12/15 11:21:04;;;;;;;89.80;50.48;;;;;;;5.50;77.70;98373.74;1721333;83;25876;-80
2021/12/15 11:23:33;;;;;;;80.72;48.33;;;;;;;5.49;77.86;98375.58;1721357;83;25738;-81
2021/12/15 11:26:07;;;;;;;80.20;47.43;;;;;;;5.50;77.87;98373.74;1718718;82;27414;-81
2021/12/15 11:28:42;;;;;;;81.87;48.83;;;;;;;5.50;77.79;98371.06;1721388;83;25781;-81
2021/12/15 11:31:19;;;;;;;81.02;47.85;;;;;;;5.51;77.76;98360.20;1721658;83;26485;-81
2021/12/15 11:34:00;;;;;;;80.15;47.65;;;;;;;5.54;77.74;98356.38;1720560;83;26559;-81
2021/12/15 11:36:34;;;;;;;80.30;48.02;;;;;;;5.57;77.84;98357.38;1721536;83;25782;-80
2021/12/15 11:39:16;;;;;;;81.10;47.58;;;;;;;5.61;77.81;98360.09;1721640;83;28439;-81
2021/12/15 11:41:47;;;;;;;74.77;44.60;;;;;;;5.62;77.66;98357.77;1721465;83;25932;-80
2021/12/15 11:44:24;;;;;;;73.10;42.90;;;;;;;5.59;77.57;98358.91;1721582;83;25775;-81
2021/12/15 11:47:05;;;;;;;70.12;43.13;;;;;;;5.57;77.57;98361.39;1721467;83;25935;-80
2021/12/15 11:49:37;;;;;;;74.60;42.40;;;;;;;5.57;77.58;98359.56;1721294;83;25702;-80
2021/12/15 11:52:11;;;;;;;68.62;41.30;;;;;;;5.57;77.65;98355.55;1721812;83;27450;-81
2021/12/15 11:54:44;;;;;;;67.03;40.17;;;;;;;5.57;77.61;98352.02;1721440;83;25846;-80
2021/12/15 11:57:27;;;;;;;74.70;42.43;;;;;;;5.59;77.67;98343.34;1721658;83;25809;-80
2021/12/15 12:00:06;;;;;;;68.00;42.45;;;;;;;5.60;77.67;98347.20;1721517;83;25911;-80
2021/12/15 12:02:37;;;;;;;78.65;44.20;;;;;;;5.67;77.64;98336.72;1721011;83;25852;-80
2021/12/15 12:05:20;;;;;;;73.45;42.43;;;;;;;5.74;77.61;98341.77;1728780;81;27422;-80
2021/12/15 12:07:59;;;;;;;70.78;42.83;;;;;;;5.79;77.49;98334.11;1721262;83;25752;-80
2021/12/15 12:10:44;;;;;;;75.75;44.85;;;;;;;5.82;77.41;98333.77;1721168;83;25948;-80
2021/12/15 12:13:19;;;;;;;73.35;44.58;;;;;;;5.75;77.20;98335.41;1721422;83;25958;-80
2021/12/15 12:15:46;;;;;;;84.45;49.73;;;;;;;5.71;77.32;98328.19;1720852;83;25702;-81
2021/12/15 12:18:18;;;;;;;80.55;47.30;;;;;;;5.69;77.35;98326.66;1721319;83;27367;-80
2021/12/15 12:20:55;;;;;;;80.67;46.40;;;;;;;5.67;77.40;98328.18;1721735;82;25778;-80
2021/12/15 12:23:26;;;;;;;84.37;47.95;;;;;;;5.65;77.41;98329.33;1721224;83;25753;-80
2021/12/15 12:25:56;;;;;;;89.32;52.83;;;;;;;5.55;77.18;98328.59;1721553;83;26578;-79
2021/12/15 12:28:28;;;;;;;98.78;54.25;;;;;;;5.46;77.24;98330.36;1725938;81;25777;-80
2021/12/15 12:31:00;;;;;;;98.45;57.35;;;;;;;5.36;77.31;98338.99;1721771;83;27443;-80
2021/12/15 12:33:28;;;;;;;96.73;56.33;;;;;;;5.33;77.50;98341.48;1721780;83;25713;-80
2021/12/15 12:36:03;;;;;;;96.08;57.20;;;;;;;5.34;77.66;98341.83;1721458;83;25784;-81
2021/12/15 12:38:33;;;;;;;99.13;55.92;;;;;;;5.30;77.65;98347.16;1721461;83;25758;-80
2021/12/15 12:41:13;;;;;;;91.22;54.90;;;;;;;5.30;77.73;98351.18;1721589;83;25778;-81